Latest Weather Observations for Mount Crawford

IDS60901

Issued at 7:31 am CDT Wednesday 22 February 2017 (issued every 10 minutes, with the page automatically refreshed every 10 minutes)

About weather observations | Map of Adelaide area stations | Latest observations for Adelaide area | Other Formats
Station Details ID: 023878 Name: MOUNT CRAWFORD AWS Lat: -34.73 Lon: 138.93 Height: 525.0 m
Data from the previous 72 hours. | See also: Recent months at Mount Crawford
Date/Time
CDT
Temp
°C
App
Temp
°C
Dew
Point
°C
Rel
Hum
%
Delta-T
°C
Wind Press
QNH
hPa
Press
MSL
hPa
Rain since
9am
mm
Dir  Spd
km/h
Gust
km/h
Spd
kts
Gust
kts
22/07:30am 22.6 13.5 1.6 25 10.1 NNE 39 54 21 29 1010.4 1008.1 0.0
22/07:24am 22.7 14.3 1.7 25 10.1 NNE 35 54 19 29 1010.1 1007.8 0.0
22/07:00am 22.1 14.0 1.2 25 9.9 NNE 33 43 18 23 1010.4 1008.1 0.0
22/06:30am 22.6 14.6 1.6 25 10.1 N 33 54 18 29 1010.4 1008.1 0.0
22/06:10am 22.6 13.7 1.0 24 10.2 NNE 37 57 20 31 1010.2 1007.9 0.0
22/06:00am 22.7 13.5 1.1 24 10.3 N 39 54 21 29 1010.4 1008.1 0.0
22/05:30am 22.4 14.4 1.4 25 10.0 NNE 33 52 18 28 1010.5 1008.2 0.0
22/05:00am 21.3 13.2 1.0 26 9.5 NNE 33 54 18 29 1010.7 1008.4 0.0
22/04:54am 21.5 13.0 1.2 26 9.6 NNE 35 54 19 29 1010.6 1008.3 0.0
22/04:30am 20.9 12.7 0.2 25 9.5 NNE 33 44 18 24 1010.8 1008.5 0.0
22/04:00am 21.1 12.1 -0.2 24 9.7 NNE 37 50 20 27 1010.9 1008.6 0.0
22/03:31am 21.4 13.0 -1.2 22 10.1 NNE 33 52 18 28 1011.7 1009.4 0.0
22/03:30am 21.1 12.7 -1.4 22 10.1 NNE 33 44 18 24 1011.7 1009.4 0.0
22/03:11am 21.5 12.3 -1.7 21 10.3 NNE 37 56 20 30 1011.7 1009.4 0.0
22/03:00am 21.7 12.5 -1.6 21 10.4 NNE 37 52 20 28 1011.7 1009.4 0.0
22/02:30am 21.9 12.7 -1.4 21 10.5 NNE 37 57 20 31 1011.9 1009.6 0.0
22/02:29am 22.1 12.8 -1.9 20 10.7 NNE 37 57 20 31 1012.0 1009.7 0.0
22/02:00am 21.7 12.3 -0.3 23 10.1 NNE 39 52 21 28 1012.3 1010.0 0.0
22/01:30am 21.9 12.6 0.4 24 10.0 NE 39 54 21 29 1012.7 1010.4 0.0
22/01:00am 21.6 12.9 1.8 27 9.4 NE 37 56 20 30 1013.2 1010.9 0.0
22/12:40am 21.7 13.4 1.9 27 9.5 NE 35 54 19 29 1013.4 1011.1 0.0
22/12:30am 21.8 13.1 2.0 27 9.5 NE 37 50 20 27 1013.4 1011.1 0.0
22/12:00am 21.2 13.0 2.5 29 9.0 NE 35 48 19 26 1013.7 1011.4 0.0
 
Date/Time
CDT
Temp
°C
App
Temp
°C
Dew
Point
°C
Rel
Hum
%
Delta-T
°C
Wind Press
QNH
hPa
Press
MSL
hPa
Rain since
9am
mm
Dir  Spd
km/h
Gust
km/h
Spd
kts
Gust
kts
21/11:30pm 20.9 12.8 3.2 31 8.6 NE 35 46 19 25 1014.3 1012.0 0.0
21/11:00pm 21.0 13.2 2.8 30 8.8 NE 33 46 18 25 1014.6 1012.4 0.0
21/10:30pm 21.1 13.6 3.3 31 8.7 NE 32 46 17 25 1014.9 1012.7 0.0
21/10:00pm 20.9 13.4 3.6 32 8.5 NE 32 39 17 21 1015.1 1012.8 0.0
21/09:30pm 20.8 13.8 4.0 33 8.3 NE 30 39 16 21 1015.1 1012.8 0.0
21/09:00pm 21.3 13.9 4.0 32 8.6 NE 32 41 17 22 1014.7 1012.5 0.0
21/08:30pm 21.9 14.9 4.0 31 8.9 NE 30 43 16 23 1014.6 1012.4 0.0
21/08:00pm 22.4 15.9 4.5 31 9.0 NE 28 35 15 19 1014.4 1012.1 0.0
21/07:30pm 23.4 16.5 4.4 29 9.6 NE 30 39 16 21 1014.3 1012.0 0.0
21/07:00pm 24.0 17.9 4.9 29 9.8 NE 26 35 14 19 1014.2 1011.9 0.0
21/06:30pm 24.5 18.9 5.3 29 10.0 NE 24 33 13 18 1014.2 1011.9 0.0
21/06:00pm 25.3 20.0 5.0 27 10.5 NE 22 30 12 16 1014.3 1012.0 0.0
21/05:30pm 26.1 22.0 6.2 28 10.6 NNE 17 24 9 13 1014.6 1012.4 0.0
21/05:00pm 26.7 22.7 6.7 28 10.8 NNE 17 24 9 13 1014.8 1012.6 0.0
21/04:30pm 25.3 20.7 5.5 28 10.4 NNE 19 37 10 20 1015.3 1013.0 0.0
21/04:00pm 25.7 21.7 6.8 30 10.1 NNE 17 28 9 15 1015.7 1013.4 0.0
21/03:30pm 26.0 22.3 8.0 32 9.9 NNE 17 32 9 17 1016.2 1013.9 0.0
21/03:00pm 25.9 21.7 7.5 31 10.0 NNE 19 28 10 15 1016.6 1014.4 0.0
21/02:30pm 25.0 20.6 7.6 33 9.4 NE 20 30 11 16 1017.3 1015.0 0.0
21/02:00pm 23.5 19.1 6.7 34 8.9 N 19 33 10 18 1017.7 1015.4 0.0
21/01:30pm 23.6 19.4 7.3 35 8.7 N 19 28 10 15 1018.0 1015.8 0.0
21/01:00pm 22.4 18.0 6.6 36 8.3 NNE 19 26 10 14 1018.2 1016.0 0.0
21/12:30pm 22.1 18.2 8.6 42 7.3 N 19 26 10 14 1018.8 1016.6 0.0
21/12:00pm 21.7 18.0 7.9 41 7.4 N 17 22 9 12 1019.0 1016.8 0.0
21/11:30am 20.3 16.2 6.3 40 7.2 NNW 17 26 9 14 1019.4 1017.1 0.0
21/11:00am 20.1 16.7 7.5 44 6.6 NE 15 20 8 11 1019.5 1017.2 0.0
21/10:30am 18.6 14.2 7.4 48 5.8 NE 20 24 11 13 1019.5 1017.2 0.0
21/10:00am 17.2 13.1 7.8 54 4.9 NE 19 26 10 14 1019.8 1017.6 0.0
21/09:30am 15.5 11.2 7.8 60 3.9 ENE 20 28 11 15 1019.6 1017.3 0.0
21/09:00am 13.4 8.9 6.3 62 3.5 ENE 19 26 10 14 1019.6 1017.3 0.0
21/08:30am 12.1 8.5 6.6 69 2.7 ENE 15 20 8 11 1019.6 1017.3 0.0
21/08:00am 10.8 6.7 6.0 72 2.3 E 17 24 9 13 1019.3 1017.0 0.0
21/07:30am 9.8 4.9 5.2 73 2.1 E 20 30 11 16 1018.6 1016.4 0.0
21/07:00am 9.1 4.5 5.5 78 1.7 E 19 22 10 12 1018.5 1016.3 0.0
21/06:30am 8.5 3.9 6.5 87 0.9 ESE 20 24 11 13 1018.1 1015.9 0.0
21/06:00am 8.3 4.2 7.7 96 0.3 ESE 19 22 10 12 1018.0 1015.8 0.0
21/05:30am 8.4 4.3 7.8 96 0.3 E 19 24 10 13 1018.1 1015.9 0.0
21/05:00am 8.7 4.0 7.6 93 0.5 ESE 22 26 12 14 1018.3 1016.1 0.0
21/04:30am 8.7 4.3 7.3 91 0.7 ESE 20 24 11 13 1018.2 1016.0 0.0
21/04:00am 8.6 4.2 7.4 92 0.6 ESE 20 24 11 13 1018.0 1015.8 0.0
21/03:30am 8.7 3.9 7.5 92 0.6 ESE 22 26 12 14 1018.0 1015.8 0.0
21/03:00am 8.8 4.1 7.6 92 0.6 ESE 22 26 12 14 1018.2 1016.0 0.0
21/02:30am 8.8 4.1 7.7 93 0.5 ESE 22 26 12 14 1018.4 1016.2 0.0
21/02:00am 8.9 4.3 8.0 94 0.4 ESE 22 26 12 14 1018.6 1016.4 0.0
21/01:30am 9.1 4.5 8.0 93 0.5 ESE 22 26 12 14 1018.6 1016.4 0.0
21/01:00am 9.3 4.3 8.1 92 0.6 ESE 24 28 13 15 1018.8 1016.6 0.0
21/12:30am 9.3 4.6 7.7 90 0.8 SE 22 28 12 15 1019.2 1016.9 0.0
21/12:00am 9.4 5.1 7.7 89 0.8 ESE 20 28 11 15 1019.5 1017.2 0.0
 
Date/Time
CDT
Temp
°C
App
Temp
°C
Dew
Point
°C
Rel
Hum
%
Delta-T
°C
Wind Press
QNH
hPa
Press
MSL
hPa
Rain since
9am
mm
Dir  Spd
km/h
Gust
km/h
Spd
kts
Gust
kts
20/11:30pm 9.7 5.0 7.6 87 1.0 SE 22 30 12 16 1019.4 1017.1 0.0
20/11:00pm 9.9 5.1 7.2 83 1.3 SE 22 28 12 15 1019.5 1017.2 0.0
20/10:30pm 10.2 5.6 6.4 77 1.8 SE 20 26 11 14 1019.3 1017.0 0.0
20/10:00pm 10.4 5.8 6.5 77 1.9 SE 20 28 11 15 1019.3 1017.0 0.0
20/09:30pm 10.9 6.4 6.8 76 2.0 SE 20 26 11 14 1019.0 1016.8 0.0
20/09:00pm 11.4 6.8 6.7 73 2.3 SE 20 28 11 15 1018.9 1016.7 0.0
20/08:30pm 12.3 7.4 6.8 69 2.7 SE 22 30 12 16 1018.6 1016.4 0.0
20/08:00pm 13.4 8.9 7.0 65 3.2 SSE 20 26 11 14 1018.2 1016.0 0.0
20/07:30pm 15.0 11.6 7.8 62 3.7 SE 15 22 8 12 1017.9 1015.6 0.0
20/07:00pm 16.5 13.5 7.7 56 4.5 SSE 13 19 7 10 1017.4 1015.1 0.0
20/06:30pm 17.1 13.8 8.0 55 4.7 SSE 15 20 8 11 1017.2 1014.9 0.0
20/06:00pm 17.0 12.7 7.1 52 5.1 S 19 22 10 12 1016.9 1014.7 0.0
20/05:30pm 18.6 16.5 6.8 46 6.1 WSW 7 13 4 7 1016.8 1014.6 0.0
20/05:00pm 17.5 13.4 6.4 48 5.6 SSW 17 22 9 12 1016.7 1014.5 0.0
20/04:30pm 18.9 16.4 8.0 49 5.7 SW 11 19 6 10 1016.7 1014.5 0.0
20/04:00pm 18.5 15.3 7.0 47 5.9 W 13 20 7 11 1016.7 1014.5 0.0
20/03:30pm 18.0 15.0 7.7 51 5.4 SW 13 20 7 11 1016.9 1014.7 0.0
20/03:00pm 17.8 14.6 7.0 49 5.5 SW 13 22 7 12 1017.2 1014.9 0.0
20/02:30pm 17.7 13.9 7.4 51 5.3 W 17 26 9 14 1017.4 1015.1 0.0
20/02:00pm 16.3 11.9 6.4 52 5.0 W 19 28 10 15 1017.6 1015.3 0.0
20/01:30pm 15.5 11.4 6.0 53 4.7 WSW 17 28 9 15 1017.8 1015.5 0.0
20/01:00pm 16.5 13.4 7.4 55 4.7 WSW 13 19 7 10 1018.0 1015.8 0.0
20/12:30pm 15.1 12.0 7.4 60 3.9 SW 13 22 7 12 1018.1 1015.9 0.0
20/12:00pm 14.3 11.6 7.4 63 3.5 SW 11 22 6 12 1018.2 1016.0 0.0
20/11:30am 13.9 10.4 7.2 64 3.4 SSW 15 22 8 12 1018.4 1016.2 0.0
20/11:00am 14.5 12.3 8.0 65 3.3 S 9 17 5 9 1018.6 1016.4 0.0
20/10:30am 13.9 11.2 7.4 65 3.3 S 11 17 6 9 1018.7 1016.5 0.0
20/10:00am 13.7 11.1 7.7 67 3.0 S 11 19 6 10 1018.6 1016.4 0.0
20/09:30am 13.4 10.6 8.7 73 2.4 SE 13 19 7 10 1018.5 1016.3 0.0
20/09:00am 12.5 9.6 9.7 83 1.5 SE 15 24 8 13 1018.2 1016.0 0.2
20/08:30am 11.3 8.3 9.2 87 1.1 SE 15 20 8 11 1018.1 1015.9 0.2
20/08:00am 10.7 7.6 8.8 88 1.0 SE 15 20 8 11 1017.8 1015.5 0.2
20/07:30am 10.3 6.8 8.7 90 0.8 SE 17 22 9 12 1017.4 1015.1 0.2
20/07:00am 10.1 7.0 8.7 91 0.7 SSE 15 20 8 11 1016.9 1014.7 0.2
20/06:30am 9.9 6.9 9.4 97 0.3 SSE 15 20 8 11 1016.8 1014.6 0.2
20/06:00am 9.8 6.9 9.7 99 0.1 SSE 15 19 8 10 1016.5 1014.3 0.2
20/05:30am 9.1 6.4 9.0 99 0.1 SE 13 15 7 8 1016.4 1014.2 0.2
20/05:00am 9.2 6.2 9.1 99 0.1 S 15 20 8 11 1016.2 1013.9 0.2
20/04:30am 9.1 6.0 9.0 99 0.1 S 15 19 8 10 1016.1 1013.8 0.2
20/04:00am 9.3 5.9 9.2 99 0.1 SSW 17 22 9 12 1015.9 1013.6 0.2
20/03:30am 9.6 6.7 9.5 99 0.1 SSW 15 20 8 11 1015.9 1013.6 0.2
20/03:00am 9.5 6.5 9.4 99 0.1 SSW 15 19 8 10 1015.9 1013.6 0.2
20/02:30am 9.3 5.5 9.0 98 0.2 S 19 22 10 12 1016.0 1013.7 0.2
20/02:00am 9.3 6.2 9.0 98 0.2 SSW 15 24 8 13 1016.2 1013.9 0.2
20/01:30am 9.7 6.3 9.2 97 0.3 S 17 22 9 12 1016.2 1013.9 0.2
20/01:00am 10.1 6.7 9.2 94 0.5 SSW 17 22 9 12 1016.4 1014.2 0.2
20/12:30am 10.3 7.0 9.4 94 0.5 SSW 17 20 9 11 1016.4 1014.2 0.2
20/12:00am 10.0 7.0 9.1 94 0.5 SSW 15 20 8 11 1016.7 1014.5 0.2
 
Date/Time
CDT
Temp
°C
App
Temp
°C
Dew
Point
°C
Rel
Hum
%
Delta-T
°C
Wind Press
QNH
hPa
Press
MSL
hPa
Rain since
9am
mm
Dir  Spd
km/h
Gust
km/h
Spd
kts
Gust
kts
19/11:30pm 9.9 6.3 8.5 91 0.7 SSW 17 20 9 11 1016.6 1014.4 0.2
19/11:00pm 10.0 7.1 8.1 88 0.9 SW 13 19 7 10 1016.7 1014.5 0.2
19/10:30pm 10.1 7.3 8.4 89 0.9 SW 13 17 7 9 1016.8 1014.6 0.2
19/10:00pm 10.6 7.5 8.7 88 1.0 SSW 15 20 8 11 1016.6 1014.4 0.2
19/09:30pm 10.9 7.1 9.0 88 1.0 SSW 19 26 10 14 1016.5 1014.3 0.2
19/09:00pm 11.4 7.8 8.3 81 1.6 SW 17 28 9 15 1016.3 1014.1 0.2
19/08:30pm 11.6 7.9 8.1 79 1.8 SW 17 20 9 11 1016.1 1013.8 0.2
19/08:00pm 12.2 8.4 7.5 73 2.3 SW 17 32 9 17 1015.9 1013.6 0.2
19/07:30pm 13.0 8.4 8.1 72 2.5 WSW 22 35 12 19 1015.6 1013.3 0.2
19/07:00pm 13.7 9.6 8.5 71 2.7 WSW 20 35 11 19 1015.3 1013.0 0.2
19/06:30pm 13.8 9.5 9.3 74 2.4 WSW 22 33 12 18 1015.2 1012.9 0.2
19/06:00pm 13.6 8.0 8.9 73 2.4 WSW 28 44 15 24 1014.9 1012.7 0.2
19/05:30pm 14.3 9.6 9.3 72 2.6 WSW 24 37 13 20 1015.2 1012.9 0.2
19/05:00pm 13.1 7.7 9.5 79 1.9 WSW 28 44 15 24 1015.4 1013.1 0.2
19/04:30pm 16.3 11.8 10.2 67 3.3 WSW 24 43 13 23 1015.1 1012.8 0.2
19/04:00pm 13.0 7.9 10.5 85 1.3 WSW 28 39 15 21 1015.4 1013.1 0.2
19/03:30pm 15.8 10.9 10.1 69 3.1 WSW 26 37 14 20 1015.5 1013.2 0.2
19/03:00pm 14.5 8.9 8.9 69 2.9 WSW 28 46 15 25 1015.6 1013.3 0.2
19/02:58pm 14.4 8.8 8.6 68 3.0 WSW 28 46 15 25 1015.5 1013.2 0.2
19/02:30pm 14.4 10.1 9.2 71 2.7 WSW 22 41 12 22 1015.8 1013.5 0.2
19/02:00pm 12.0 6.8 10.2 89 1.0 WSW 28 46 15 25 1016.1 1013.8 0.2
19/01:30pm 13.4 10.6 11.3 87 1.1 WSW 17 28 9 15 1016.4 1014.2 0.2
19/01:00pm 13.0 6.9 8.3 73 2.4 WSW 30 43 16 23 1016.3 1014.1 0.2
19/12:30pm 14.6 9.9 9.4 71 2.7 WSW 24 37 13 20 1016.4 1014.2 0.2
19/12:00pm 13.6 7.3 7.2 65 3.2 WSW 30 46 16 25 1016.6 1014.4 0.2
19/11:55am 13.9 8.0 7.7 66 3.1 WSW 28 46 15 25 1016.4 1014.2 0.2
19/11:30am 12.3 7.8 8.4 77 2.0 SW 22 39 12 21 1016.8 1014.6 0.2
19/11:00am 10.8 6.5 10.6 99 0.1 WSW 24 35 13 19 1017.2 1014.9 0.2
19/10:30am 13.4 10.8 10.6 83 1.5 W 15 24 8 13 1016.8 1014.6 0.0
19/10:00am 10.7 6.8 9.6 93 0.6 WSW 20 35 11 19 1016.8 1014.6 0.0
19/09:30am 11.7 9.9 10.9 95 0.4 WSW 11 17 6 9 1016.6 1014.4 0.0
19/09:00am 10.2 8.6 10.1 99 0.1 WSW 9 17 5 9 1016.7 1014.5 0.4
19/08:30am 11.0 8.9 8.2 83 1.4 WSW 9 15 5 8 1016.6 1014.4 0.2
19/08:00am 10.3 8.5 7.9 85 1.2 WSW 7 9 4 5 1016.2 1013.9 0.2

Latest Capital City Observations: Canberra | Sydney | Melbourne | Brisbane | Adelaide | Perth | Hobart | Darwin

Other Formats:

Comma delimited format used in spreadsheet applications
http://www.bom.gov.au/fwo/IDS60901/IDS60901.94678.axf

JavaScript Object Notation format (JSON) in row-major order
http://www.bom.gov.au/fwo/IDS60901/IDS60901.94678.json